NameVerkehrslandeplatz Ganderkesee
ICAO-CODEEDWQ
Koordinaten53.02.15 N / 08.30.22 E
Richtung26 (262°) / 08 (082°)
Höhe über Grund96 ft
Abmessung835 m x 22 m
BelagLandebahn: ASPH
Rollwege: ASPH
FrequenzenGanderkesee Info / 118.630 MHz (spätestens 5 min. vor Erreichen des Platzes)
Bremen Information: 119.825 MHz
Bremen Approach: 124.800 MHz
Im Flugplatzverkehr ist ständige Hörbereitschaft aufrechtzuerhalten.
Auf Segelflüge / Ultralights / Fallschirmspringen achten – insbesondere am Samstag / Sonntag / Feiertag.
TowerTel +49 4222 8054610
METAR
(EDDW)
EDDW 010020Z AUTO 26007KT 9999 BKN010 18/17 Q1011 (ohne Gewähr)
TAF
(EDDW)
TAF EDDW 292300Z 3000/3024 09005KT CAVOK BECMG 3006/3008 11010KT BECMG 3014/3016 10005KT BECMG 3021/3024 26008KT PROB30 TEMPO 3023/3024 29015G30KT 3000 TSRA BKN008 BKN050CB (ohne Gewähr)
NOTAMs
Betriebszeiten09:00 – 20:00 Uhr (automatisch berechnete Zeit – ohne Gewähr)
Sommer:
UTC+2 09:00 Uhr bis Sonnenuntergang + 30 Min. (max. 20:00 Uhr)
Winter:
UTC+1 09:00 Uhr bis Sonnenuntergang + 30 Min. (max. 20:00 Uhr)
Andere Zeiten PPR.
13:00 bis 15:00 Uhr Ab- und Anflüge nur für / von Überlandflügen.
Flugbetriebsstoffesiehe Preise / Gebühren
Platzrundesiehe Sichtflug
Hangarssiehe Hangars
BetriebsartenSichtflug (VFR)
Sichtflug bei Nacht (NVFR)
GAFOR07
LuftfahrzeugartenFlugzeuge bis 5.700 kg MPW
Motorsegler
Segelflug (Schleppstart)
Ultraleicht-Flugzeuge
Freiballone PPR
Flugzeuge ab 5.700 kg PPR
Fallschirmspringer PPR